Time;durP1;ratioP1;P1;durP2;ratioP2;P2;SDS_P1;SDS_P2;PMS_P1;PMS_P2;Temp;Humidity;BMP_temperature;BMP_pressure;BME280_temperature;BME280_humidity;BME280_pressure;Samples;Min_cycle;Max_cycle;Signal;HPM_P1;HPM_P2
2022/03/19 00:00:42;;;;;;;19.77;10.50;;;8.60;99.90;;;;;;4967296;28;38365;-75
2022/03/19 00:03:08;;;;;;;22.50;10.50;;;8.60;99.90;;;;;;4964294;28;38119;-75
2022/03/19 00:05:34;;;;;;;19.53;9.20;;;8.50;99.90;;;;;;4963591;28;37951;-75
2022/03/19 00:08:01;;;;;;;21.07;10.53;;;8.60;99.90;;;;;;4963965;28;38456;-75
2022/03/19 00:10:27;;;;;;;20.83;9.73;;;8.50;99.90;;;;;;4965850;28;48614;-74
2022/03/19 00:12:54;;;;;;;19.80;10.03;;;8.40;99.90;;;;;;4966033;28;38748;-75
2022/03/19 00:15:20;;;;;;;19.33;9.90;;;8.30;99.90;;;;;;4963273;28;37279;-75
2022/03/19 00:17:46;;;;;;;24.43;10.20;;;8.30;99.90;;;;;;4966701;28;38760;-75
2022/03/19 00:20:13;;;;;;;17.70;9.53;;;8.40;99.90;;;;;;4966322;28;38114;-76
2022/03/19 00:22:39;;;;;;;25.30;10.03;;;8.40;99.90;;;;;;4962465;28;39016;-75
2022/03/19 00:25:08;;;;;;;20.40;9.47;;;8.30;99.90;;;;;;4964350;28;37341;-75
2022/03/19 00:27:34;;;;;;;25.77;10.80;;;8.20;99.90;;;;;;4980951;28;39999;-75
2022/03/19 00:30:00;;;;;;;22.17;9.97;;;8.20;99.90;;;;;;4963938;28;38402;-75
2022/03/19 00:32:26;;;;;;;18.20;9.57;;;8.20;99.90;;;;;;4962538;28;47962;-75
2022/03/19 00:34:52;;;;;;;18.80;11.07;;;8.20;99.90;;;;;;4963704;28;39040;-75
2022/03/19 00:37:18;;;;;;;20.73;9.83;;;8.10;99.90;;;;;;4974703;28;39996;-75
2022/03/19 00:39:44;;;;;;;25.10;10.27;;;8.10;99.90;;;;;;4967048;28;37835;-75
2022/03/19 00:42:10;;;;;;;18.83;9.90;;;8.00;99.90;;;;;;4960519;28;38141;-75
2022/03/19 00:44:36;;;;;;;22.77;11.53;;;8.00;99.90;;;;;;4968559;28;38699;-75
2022/03/19 00:47:03;;;;;;;22.87;11.63;;;8.00;99.90;;;;;;4963059;28;40614;-75
2022/03/19 00:49:29;;;;;;;22.97;10.53;;;8.00;99.90;;;;;;4945457;28;39125;-75
2022/03/19 00:51:55;;;;;;;30.43;12.00;;;7.90;99.90;;;;;;4966618;28;39679;-75
2022/03/19 00:54:21;;;;;;;24.27;11.83;;;7.90;99.90;;;;;;4979051;28;36771;-75
2022/03/19 00:56:47;;;;;;;21.93;11.03;;;7.90;99.90;;;;;;4981587;28;38954;-75
2022/03/19 00:59:14;;;;;;;27.93;11.37;;;7.90;99.90;;;;;;4980268;28;38548;-75
2022/03/19 01:01:40;;;;;;;21.17;10.30;;;7.90;99.90;;;;;;4951157;28;38612;-75
2022/03/19 01:04:06;;;;;;;24.43;10.80;;;7.80;99.90;;;;;;4984269;28;40964;-75
2022/03/19 01:06:32;;;;;;;25.37;10.23;;;7.80;99.90;;;;;;4981953;28;40495;-75
2022/03/19 01:08:58;;;;;;;26.23;11.10;;;7.80;99.90;;;;;;4982987;28;38621;-75
2022/03/19 01:11:24;;;;;;;23.37;10.50;;;7.80;99.90;;;;;;4983059;28;37974;-75
2022/03/19 01:13:51;;;;;;;25.40;10.40;;;7.90;99.90;;;;;;4966265;28;38478;-75
2022/03/19 01:16:19;;;;;;;25.57;10.97;;;7.90;99.90;;;;;;4980242;28;40405;-75
2022/03/19 01:18:46;;;;;;;22.50;10.30;;;7.90;99.90;;;;;;4987232;28;39267;-76
2022/03/19 01:21:12;;;;;;;22.93;10.17;;;7.90;99.90;;;;;;4969051;28;37800;-75
2022/03/19 01:23:39;;;;;;;19.33;10.30;;;7.90;99.90;;;;;;4982799;28;37029;-76
2022/03/19 01:26:05;;;;;;;21.47;9.43;;;7.80;99.90;;;;;;4977464;28;38170;-75
2022/03/19 01:28:31;;;;;;;20.03;10.40;;;7.80;99.90;;;;;;4975164;28;38219;-75
2022/03/19 01:30:57;;;;;;;26.63;10.27;;;7.70;99.90;;;;;;4970675;28;38826;-75
2022/03/19 01:33:23;;;;;;;23.73;10.60;;;7.80;99.90;;;;;;4975243;28;37860;-75
2022/03/19 01:35:49;;;;;;;22.67;11.10;;;7.70;99.90;;;;;;4980454;28;38745;-75
2022/03/19 01:38:15;;;;;;;22.57;9.70;;;7.70;99.90;;;;;;4963652;28;39796;-75
2022/03/19 01:40:42;;;;;;;33.13;11.37;;;7.80;99.90;;;;;;4981560;28;38687;-75
2022/03/19 01:43:08;;;;;;;20.67;10.63;;;7.80;99.90;;;;;;4978903;28;36786;-75
2022/03/19 01:45:34;;;;;;;20.10;10.00;;;7.70;99.90;;;;;;4964592;28;38959;-75
2022/03/19 01:48:00;;;;;;;22.67;10.30;;;7.70;99.90;;;;;;4982312;28;37904;-75
2022/03/19 01:50:27;;;;;;;24.83;10.00;;;7.60;99.90;;;;;;4979863;28;38214;-75
2022/03/19 01:52:55;;;;;;;21.30;10.23;;;7.60;99.90;;;;;;4977953;28;37115;-75
2022/03/19 01:55:25;;;;;;;25.17;11.27;;;7.50;99.90;;;;;;4979637;28;38869;-75
2022/03/19 01:57:51;;;;;;;23.93;9.50;;;7.50;99.90;;;;;;4980830;28;36914;-74
2022/03/19 02:00:21;;;;;;;22.43;10.47;;;7.50;99.90;;;;;;4976706;28;37717;-75
2022/03/19 02:02:49;;;;;;;28.43;10.50;;;7.40;99.90;;;;;;4982942;28;36855;-75
2022/03/19 02:05:18;;;;;;;26.20;10.67;;;7.40;99.90;;;;;;4982381;28;39205;-75
2022/03/19 02:07:46;;;;;;;22.87;10.47;;;7.40;99.90;;;;;;4967599;28;38451;-75
2022/03/19 02:10:14;;;;;;;27.73;10.40;;;7.30;99.90;;;;;;4981122;28;39202;-75
2022/03/19 02:12:41;;;;;;;24.23;9.57;;;7.30;99.90;;;;;;4983016;28;37252;-75
2022/03/19 02:15:09;;;;;;;28.97;10.60;;;7.20;99.90;;;;;;4981422;28;38959;-75
2022/03/19 02:17:35;;;;;;;26.40;9.77;;;7.20;99.90;;;;;;4962415;28;39190;-75
2022/03/19 02:20:03;;;;;;;27.87;10.27;;;7.20;99.90;;;;;;4985845;28;38009;-75
2022/03/19 02:22:29;;;;;;;25.00;10.40;;;7.10;99.90;;;;;;4964866;28;47082;-75
2022/03/19 02:27:42;;;;;;;21.73;10.60;;;7.10;99.90;;;;;;4987998;28;49460;-74
2022/03/19 02:30:10;;;;;;;28.70;10.10;;;7.10;99.90;;;;;;4981894;28;39130;-75
2022/03/19 02:32:45;;;;;;;22.90;10.37;;;7.10;99.90;;;;;;4995829;28;38807;-74
2022/03/19 02:35:12;;;;;;;26.50;10.27;;;7.10;99.90;;;;;;4984884;28;38909;-75
2022/03/19 02:37:44;;;;;;;21.53;9.20;;;7.00;99.90;;;;;;4982431;28;38364;-75
2022/03/19 02:40:15;;;;;;;22.53;10.23;;;7.00;99.90;;;;;;4968369;28;38264;-75
2022/03/19 02:42:41;;;;;;;18.53;9.67;;;7.00;99.90;;;;;;4984897;28;36770;-75
2022/03/19 02:45:08;;;;;;;25.17;10.03;;;7.00;99.90;;;;;;4983890;28;38729;-75
2022/03/19 02:47:56;;;;;;;22.80;9.47;;;6.90;99.90;;;;;;4984166;28;38250;-75
2022/03/19 02:50:22;;;;;;;21.73;9.27;;;6.90;99.90;;;;;;4984119;28;38811;-75
2022/03/19 02:52:48;;;;;;;20.97;9.43;;;7.00;99.90;;;;;;4979846;28;37507;-75
2022/03/19 02:55:15;;;;;;;26.87;10.03;;;7.00;99.90;;;;;;4977116;28;38880;-75
2022/03/19 02:57:41;;;;;;;25.10;9.67;;;6.90;99.90;;;;;;4964586;28;38650;-76
2022/03/19 03:00:08;;;;;;;20.23;11.20;;;6.90;99.90;;;;;;4958700;28;37998;-75
2022/03/19 03:02:34;;;;;;;22.70;9.47;;;6.90;99.90;;;;;;4960523;28;37287;-75
2022/03/19 03:05:00;;;;;;;24.53;9.50;;;6.90;99.90;;;;;;4964847;28;38250;-75
2022/03/19 03:07:26;;;;;;;21.57;8.50;;;6.90;99.90;;;;;;4963169;28;38315;-75
2022/03/19 03:09:52;;;;;;;18.10;8.47;;;6.90;99.90;;;;;;4960544;28;38220;-75
2022/03/19 03:12:18;;;;;;;22.20;9.33;;;6.90;99.90;;;;;;4964567;28;36972;-75
2022/03/19 03:14:44;;;;;;;21.57;8.83;;;6.80;99.90;;;;;;4949801;28;39488;-76
2022/03/19 03:17:10;;;;;;;26.00;8.70;;;6.80;99.90;;;;;;4963382;28;38560;-75
2022/03/19 03:19:36;;;;;;;25.13;9.17;;;6.90;99.90;;;;;;4964397;28;38529;-75
2022/03/19 03:22:03;;;;;;;26.33;10.37;;;6.90;99.90;;;;;;4964131;28;37160;-75
2022/03/19 03:24:29;;;;;;;23.27;9.03;;;6.90;99.90;;;;;;4947024;28;39267;-75
2022/03/19 03:26:55;;;;;;;30.47;9.20;;;6.90;99.90;;;;;;4965119;28;39353;-75
2022/03/19 03:29:21;;;;;;;23.57;9.63;;;6.90;99.90;;;;;;4952609;28;39491;-74
2022/03/19 03:31:47;;;;;;;27.37;9.60;;;6.90;99.90;;;;;;4965086;28;36224;-75
2022/03/19 03:34:13;;;;;;;25.77;8.77;;;6.90;99.90;;;;;;4966315;28;39925;-75
2022/03/19 03:36:39;;;;;;;21.93;9.23;;;6.80;99.90;;;;;;4966133;28;38949;-75
2022/03/19 03:39:05;;;;;;;23.23;9.70;;;6.80;99.90;;;;;;4962551;28;38806;-75
2022/03/19 03:41:32;;;;;;;23.23;8.50;;;6.80;99.90;;;;;;4961844;28;37139;-75
2022/03/19 03:43:58;;;;;;;21.83;8.40;;;6.90;99.90;;;;;;4966992;28;38878;-75
2022/03/19 03:46:24;;;;;;;23.80;9.57;;;6.90;99.90;;;;;;4965384;28;39025;-75
2022/03/19 03:48:50;;;;;;;21.63;9.50;;;6.80;99.90;;;;;;4967670;28;38073;-76
2022/03/19 03:51:16;;;;;;;21.83;9.30;;;6.80;99.90;;;;;;4963361;28;37943;-75
2022/03/19 03:53:45;;;;;;;23.93;8.20;;;6.80;99.90;;;;;;4963760;28;39746;-75
2022/03/19 03:56:11;;;;;;;22.87;8.07;;;6.80;99.90;;;;;;4970645;28;37480;-75
2022/03/19 03:58:40;;;;;;;26.00;9.97;;;6.70;99.90;;;;;;4986301;28;38416;-76
2022/03/19 04:01:08;;;;;;;24.63;9.40;;;6.70;99.90;;;;;;4982575;28;36530;-75
2022/03/19 04:03:34;;;;;;;22.37;8.67;;;6.70;99.90;;;;;;4971819;28;39001;-75
2022/03/19 04:06:00;;;;;;;25.77;9.87;;;6.70;99.90;;;;;;4985886;28;39163;-75
2022/03/19 04:08:27;;;;;;;21.87;9.63;;;6.70;99.90;;;;;;4985284;28;47978;-75
2022/03/19 04:10:53;;;;;;;24.20;9.83;;;6.70;99.90;;;;;;4985318;28;38848;-75
2022/03/19 04:13:19;;;;;;;28.63;12.23;;;6.60;99.90;;;;;;4963767;28;40035;-75
2022/03/19 04:15:45;;;;;;;22.67;9.50;;;6.70;99.90;;;;;;4981769;28;39701;-75
2022/03/19 04:18:13;;;;;;;21.30;9.30;;;6.70;99.90;;;;;;4979893;28;38070;-74
2022/03/19 04:20:40;;;;;;;20.67;9.83;;;6.60;99.90;;;;;;4982513;28;37042;-75
2022/03/19 04:23:06;;;;;;;22.87;9.27;;;6.60;99.90;;;;;;4979951;28;38939;-75
2022/03/19 04:25:32;;;;;;;22.70;10.03;;;6.60;99.90;;;;;;4981614;28;38575;-75
2022/03/19 04:27:58;;;;;;;24.70;9.77;;;6.60;99.90;;;;;;4964303;28;38711;-75
2022/03/19 04:30:26;;;;;;;26.07;9.57;;;6.60;99.90;;;;;;4981817;28;38137;-75
2022/03/19 04:32:55;;;;;;;25.60;10.07;;;6.50;99.90;;;;;;4979811;28;38705;-75
2022/03/19 04:38:10;;;;;;;23.90;10.10;;;6.50;99.90;;;;;;4981492;28;39631;-75
2022/03/19 04:40:40;;;;;;;25.83;10.70;;;6.50;99.90;;;;;;4983166;28;37716;-75
2022/03/19 04:43:07;;;;;;;26.03;10.03;;;6.50;99.90;;;;;;4963006;28;39599;-75
2022/03/19 04:45:34;;;;;;;21.30;9.57;;;6.50;99.90;;;;;;4975051;28;37000;-75
2022/03/19 04:48:01;;;;;;;29.13;10.27;;;6.50;99.90;;;;;;4979358;28;38804;-75
2022/03/19 04:50:27;;;;;;;25.20;9.77;;;6.50;99.90;;;;;;4981395;28;49024;-75
2022/03/19 04:52:54;;;;;;;26.00;11.37;;;6.50;99.90;;;;;;4981532;28;39963;-75
2022/03/19 04:55:21;;;;;;;21.73;10.30;;;6.40;99.90;;;;;;4978803;28;39275;-75
2022/03/19 04:57:48;;;;;;;29.50;10.00;;;6.40;99.90;;;;;;4979099;28;39884;-75
2022/03/19 05:00:17;;;;;;;25.90;11.63;;;6.40;99.90;;;;;;4964112;28;37996;-75
2022/03/19 05:02:44;;;;;;;24.40;11.30;;;6.40;99.90;;;;;;4969066;28;38432;-75
2022/03/19 05:05:11;;;;;;;18.00;9.83;;;6.40;99.90;;;;;;4984993;28;38412;-75
2022/03/19 05:07:39;;;;;;;25.00;10.27;;;6.40;99.90;;;;;;4962542;28;37173;-75
2022/03/19 05:12:52;;;;;;;23.53;10.87;;;6.40;99.90;;;;;;4980228;28;39247;-75
2022/03/19 05:15:18;;;;;;;26.70;9.70;;;6.40;99.90;;;;;;4976060;28;38419;-74
2022/03/19 05:17:45;;;;;;;21.30;9.80;;;6.40;99.90;;;;;;4980596;28;37688;-75
2022/03/19 05:20:13;;;;;;;26.23;10.17;;;6.40;99.90;;;;;;4961716;28;39315;-75
2022/03/19 05:22:39;;;;;;;21.40;10.87;;;6.40;99.90;;;;;;4979484;28;41755;-75
2022/03/19 05:25:07;;;;;;;23.03;10.80;;;6.30;99.90;;;;;;4977086;28;38524;-75
2022/03/19 05:27:33;;;;;;;20.10;10.13;;;6.30;99.90;;;;;;4963712;28;37425;-75
2022/03/19 05:29:59;;;;;;;28.37;10.93;;;6.30;99.90;;;;;;4977860;28;38922;-74
2022/03/19 05:32:26;;;;;;;20.87;10.43;;;6.30;99.90;;;;;;4980025;28;39945;-75
2022/03/19 05:34:54;;;;;;;32.03;10.80;;;6.30;99.90;;;;;;4976288;28;38784;-75
2022/03/19 05:37:20;;;;;;;18.87;9.93;;;6.30;99.90;;;;;;4980343;28;38351;-75
2022/03/19 05:39:46;;;;;;;30.13;11.57;;;6.30;99.90;;;;;;4980273;28;37254;-75
2022/03/19 05:42:12;;;;;;;23.60;10.53;;;6.20;99.90;;;;;;4963043;28;39692;-74
2022/03/19 05:44:38;;;;;;;19.30;10.20;;;6.20;99.90;;;;;;4967847;28;39920;-75
2022/03/19 05:47:05;;;;;;;18.53;9.87;;;6.30;99.90;;;;;;4977301;28;39582;-74
2022/03/19 05:49:31;;;;;;;24.30;10.57;;;6.30;99.90;;;;;;4978081;28;37777;-75
2022/03/19 05:51:58;;;;;;;23.80;10.53;;;6.30;99.90;;;;;;4980831;28;39913;-74
2022/03/19 05:54:25;;;;;;;22.80;10.53;;;6.20;99.90;;;;;;4976952;28;39389;-74
2022/03/19 05:56:52;;;;;;;20.67;9.33;;;6.20;99.90;;;;;;4973434;28;38381;-75
2022/03/19 05:59:20;;;;;;;20.83;10.27;;;6.20;99.90;;;;;;4980275;28;38087;-75
2022/03/19 06:01:46;;;;;;;24.07;10.10;;;6.20;99.90;;;;;;4978709;28;39074;-75
2022/03/19 06:04:13;;;;;;;18.13;9.60;;;6.20;99.90;;;;;;4963315;28;39325;-75
2022/03/19 06:06:39;;;;;;;25.43;10.13;;;6.20;99.90;;;;;;4968320;28;38328;-74
2022/03/19 06:09:05;;;;;;;21.60;10.77;;;6.30;99.90;;;;;;4959362;28;37209;-76
2022/03/19 06:11:31;;;;;;;19.43;10.03;;;6.30;99.90;;;;;;4961041;28;38958;-75
2022/03/19 06:13:58;;;;;;;20.97;9.60;;;6.30;99.90;;;;;;4960921;28;39358;-75
2022/03/19 06:16:24;;;;;;;21.53;9.17;;;6.30;99.90;;;;;;4960809;28;36460;-74
2022/03/19 06:18:50;;;;;;;21.80;10.27;;;6.30;99.90;;;;;;4960363;28;35652;-75
2022/03/19 06:21:22;;;;;;;24.80;9.23;;;6.30;99.90;;;;;;4962521;28;38811;-74
2022/03/19 06:23:52;;;;;;;26.90;10.10;;;6.30;99.90;;;;;;4969586;28;38813;-75
2022/03/19 06:26:20;;;;;;;21.07;9.50;;;6.40;99.90;;;;;;4984162;28;39779;-75
2022/03/19 06:28:46;;;;;;;20.27;10.03;;;6.40;99.90;;;;;;4964907;28;38230;-76
2022/03/19 06:31:13;;;;;;;25.37;9.67;;;6.50;99.90;;;;;;4975531;28;40803;-75
2022/03/19 06:33:44;;;;;;;22.23;9.70;;;6.50;99.90;;;;;;4960142;28;38994;-75
2022/03/19 06:38:57;;;;;;;19.77;9.53;;;6.50;99.90;;;;;;4960347;28;38996;-75
2022/03/19 06:41:23;;;;;;;18.33;9.47;;;6.60;99.90;;;;;;4976370;28;39197;-75
2022/03/19 06:43:50;;;;;;;23.57;9.80;;;6.60;99.90;;;;;;4960747;28;39063;-75
2022/03/19 06:46:16;;;;;;;22.13;9.43;;;6.70;99.90;;;;;;4972067;28;38818;-75
2022/03/19 06:48:42;;;;;;;19.43;8.83;;;6.70;99.90;;;;;;4964286;28;38025;-75
2022/03/19 06:51:09;;;;;;;24.93;9.17;;;6.70;99.90;;;;;;4964711;28;39872;-75
2022/03/19 06:53:36;;;;;;;25.03;9.00;;;6.80;99.90;;;;;;4962448;28;37429;-76
2022/03/19 06:56:03;;;;;;;16.70;8.67;;;6.80;99.90;;;;;;4974201;28;40420;-75
2022/03/19 06:58:29;;;;;;;19.63;8.80;;;6.80;99.90;;;;;;4982108;28;38804;-75
2022/03/19 07:00:55;;;;;;;25.27;8.53;;;6.80;99.90;;;;;;4980214;28;38440;-75
2022/03/19 07:03:21;;;;;;;21.80;8.33;;;6.90;99.90;;;;;;4982866;28;39670;-76
2022/03/19 07:05:47;;;;;;;19.83;8.87;;;6.90;99.90;;;;;;4966839;28;38579;-75
2022/03/19 07:08:13;;;;;;;23.00;9.20;;;6.90;99.90;;;;;;4959970;28;38490;-75
2022/03/19 07:10:40;;;;;;;24.47;8.13;;;7.00;99.90;;;;;;4977525;28;38651;-75
2022/03/19 07:13:06;;;;;;;21.93;8.77;;;7.10;99.90;;;;;;4960202;28;38008;-75
2022/03/19 07:15:32;;;;;;;17.70;8.27;;;7.10;99.90;;;;;;4962512;28;37700;-75
2022/03/19 07:18:03;;;;;;;16.50;8.60;;;7.10;99.90;;;;;;4979367;28;38218;-75
2022/03/19 07:20:30;;;;;;;20.83;8.03;;;7.20;99.90;;;;;;4977259;28;48762;-74
2022/03/19 07:23:05;;;;;;;19.87;8.93;;;7.20;99.90;;;;;;4978479;28;38589;-75
2022/03/19 07:25:37;;;;;;;21.20;8.77;;;7.30;99.90;;;;;;4959346;28;47378;-74
2022/03/19 07:28:17;;;;;;;21.73;8.50;;;7.30;99.90;;;;;;4980196;28;37194;-75
2022/03/19 07:30:44;;;;;;;18.57;8.80;;;7.40;99.90;;;;;;4976218;28;39572;-75
2022/03/19 07:33:11;;;;;;;23.97;9.50;;;7.50;99.90;;;;;;4978325;28;36843;-75
2022/03/19 07:35:39;;;;;;;19.00;8.37;;;7.60;99.90;;;;;;4964016;28;39503;-75
2022/03/19 07:38:06;;;;;;;24.23;9.03;;;7.70;99.90;;;;;;4979845;28;36931;-75
2022/03/19 07:43:19;;;;;;;20.87;8.47;;;7.90;99.90;;;;;;4977739;28;38844;-76
2022/03/19 07:45:45;;;;;;;18.43;6.90;;;8.00;99.90;;;;;;4961969;28;38556;-75
2022/03/19 07:48:11;;;;;;;19.10;7.80;;;8.10;99.90;;;;;;4976579;28;38101;-75
2022/03/19 07:50:38;;;;;;;18.50;8.10;;;8.10;99.90;;;;;;4978918;28;39822;-75
2022/03/19 07:53:06;;;;;;;20.10;7.50;;;8.20;99.90;;;;;;4978294;28;36720;-75
2022/03/19 07:55:33;;;;;;;17.77;7.73;;;8.30;99.90;;;;;;4977630;28;38191;-75
2022/03/19 07:58:00;;;;;;;19.27;7.77;;;8.30;99.90;;;;;;4977264;28;38897;-76
2022/03/19 08:00:26;;;;;;;15.40;7.50;;;8.40;99.90;;;;;;4976610;28;40201;-76
2022/03/19 08:02:52;;;;;;;20.60;7.97;;;8.50;99.90;;;;;;4979760;28;38923;-76
2022/03/19 08:05:18;;;;;;;16.57;7.70;;;8.50;99.90;;;;;;4983407;28;37611;-75
2022/03/19 08:07:45;;;;;;;17.73;7.73;;;8.60;99.90;;;;;;4984577;28;37719;-75
2022/03/19 08:10:12;;;;;;;17.27;7.30;;;8.60;99.90;;;;;;4978883;28;38277;-75
2022/03/19 08:12:40;;;;;;;19.73;7.63;;;8.70;99.90;;;;;;4979119;28;38690;-76
2022/03/19 08:15:08;;;;;;;18.37;7.60;;;8.70;99.90;;;;;;4948869;28;38916;-75
2022/03/19 08:17:38;;;;;;;14.30;7.27;;;8.80;99.90;;;;;;4975489;28;36734;-75
2022/03/19 08:20:08;;;;;;;18.63;6.60;;;8.90;99.90;;;;;;4980105;28;38652;-76
2022/03/19 08:22:35;;;;;;;15.43;7.10;;;9.00;99.90;;;;;;4980767;28;38420;-76
2022/03/19 08:25:03;;;;;;;17.73;7.27;;;9.10;99.90;;;;;;4979447;28;39023;-77
2022/03/19 08:27:29;;;;;;;14.27;6.33;;;9.10;99.90;;;;;;4986681;28;47215;-77
2022/03/19 08:29:55;;;;;;;19.57;6.87;;;9.20;99.90;;;;;;4982054;28;40097;-76
2022/03/19 08:32:22;;;;;;;15.23;6.27;;;9.30;99.90;;;;;;4983327;28;38608;-76
2022/03/19 08:34:49;;;;;;;18.63;6.83;;;9.40;99.90;;;;;;4986193;28;38714;-76
2022/03/19 08:37:15;;;;;;;16.50;6.17;;;9.40;99.90;;;;;;4981631;28;37384;-76
2022/03/19 08:42:26;;;;;;;18.80;6.17;;;9.60;99.90;;;;;;4982079;28;49599;-74
2022/03/19 08:44:55;;;;;;;15.80;6.60;;;9.70;99.90;;;;;;4984543;28;38274;-75
2022/03/19 08:47:21;;;;;;;14.23;6.00;;;9.80;99.90;;;;;;4984127;28;39391;-74
2022/03/19 08:49:47;;;;;;;19.67;5.90;;;9.90;99.90;;;;;;4985704;28;38640;-74
2022/03/19 08:52:13;;;;;;;15.00;5.53;;;10.00;99.90;;;;;;4980026;28;40451;-74
2022/03/19 08:54:39;;;;;;;17.93;5.60;;;10.10;99.90;;;;;;4983118;28;39165;-76
2022/03/19 08:57:05;;;;;;;19.93;6.80;;;10.20;99.90;;;;;;4983872;28;37208;-75
2022/03/19 08:59:31;;;;;;;16.93;6.00;;;10.30;99.90;;;;;;4968740;28;39425;-77
2022/03/19 09:01:59;;;;;;;17.13;5.70;;;10.30;99.90;;;;;;4986403;28;37869;-75
2022/03/19 09:04:25;;;;;;;13.67;4.77;;;10.40;99.90;;;;;;4982050;28;38939;-73
2022/03/19 09:06:51;;;;;;;16.80;6.20;;;10.40;99.90;;;;;;4983444;28;36379;-76
2022/03/19 09:09:19;;;;;;;23.07;7.67;;;10.40;99.90;;;;;;4985196;28;39007;-76
2022/03/19 09:11:46;;;;;;;29.93;9.37;;;10.50;99.90;;;;;;4955817;28;37455;-80
2022/03/19 09:14:12;;;;;;;17.67;6.03;;;10.50;99.90;;;;;;4980960;28;38291;-78
2022/03/19 09:16:40;;;;;;;13.00;4.70;;;10.60;99.90;;;;;;4984406;28;37254;-77
2022/03/19 09:19:06;;;;;;;14.93;4.33;;;10.70;99.90;;;;;;4980837;28;40196;-78
2022/03/19 09:21:32;;;;;;;13.63;4.38;;;10.80;99.90;;;;;;4981920;28;37675;-79
2022/03/19 09:23:58;;;;;;;18.13;5.47;;;10.90;99.90;;;;;;4963016;28;40426;-78
2022/03/19 09:26:25;;;;;;;15.15;4.75;;;10.90;99.90;;;;;;4980411;28;36992;-77
2022/03/19 09:28:51;;;;;;;15.93;5.23;;;11.00;99.90;;;;;;4982973;28;40561;-77
2022/03/19 09:31:18;;;;;;;14.07;5.38;;;11.00;99.90;;;;;;4978770;28;38609;-78
2022/03/19 09:33:45;;;;;;;13.82;4.25;;;11.10;99.90;;;;;;4965543;28;40105;-78
2022/03/19 09:36:15;;;;;;;12.73;4.07;;;11.10;99.90;;;;;;4986283;28;37547;-77
2022/03/19 09:38:41;;;;;;;15.13;4.88;;;11.20;99.90;;;;;;4970222;28;40438;-79
2022/03/19 09:41:08;;;;;;;9.55;3.72;;;11.20;99.90;;;;;;4980762;28;39831;-77
2022/03/19 09:43:35;;;;;;;10.35;4.65;;;11.20;99.90;;;;;;4981025;28;39452;-77
2022/03/19 09:46:03;;;;;;;11.23;4.32;;;11.20;99.90;;;;;;4980268;28;38196;-77
2022/03/19 09:48:29;;;;;;;10.52;3.83;;;11.20;99.90;;;;;;4987381;28;39478;-76
2022/03/19 09:50:58;;;;;;;11.18;4.30;;;11.20;99.90;;;;;;4981633;28;39578;-78
2022/03/19 09:53:25;;;;;;;13.18;3.92;;;11.20;99.90;;;;;;4966272;28;38483;-74
2022/03/19 09:55:53;;;;;;;12.88;4.07;;;11.20;99.90;;;;;;4964401;28;20055;-77
2022/03/19 09:58:20;;;;;;;12.10;3.50;;;11.30;99.90;;;;;;4966873;28;40153;-76
2022/03/19 10:00:46;;;;;;;14.35;3.80;;;11.50;99.90;;;;;;4977827;28;39743;-76
2022/03/19 10:03:13;;;;;;;14.07;4.20;;;11.50;99.90;;;;;;4959145;28;39538;-78
2022/03/19 10:08:35;;;;;;;12.25;3.83;;;11.50;99.90;;;;;;4964058;28;40341;-77
2022/03/19 10:11:15;;;;;;;6.65;3.03;;;11.70;99.90;;;;;;4979165;28;37526;-77
2022/03/19 10:13:45;;;;;;;6.72;3.75;;;11.70;99.90;;;;;;4967010;28;38502;-76
2022/03/19 10:16:19;;;;;;;7.80;2.70;;;11.80;99.90;;;;;;4965513;28;37968;-75
2022/03/19 10:19:03;;;;;;;6.50;2.60;;;11.90;99.90;;;;;;4965685;28;39879;-78
2022/03/19 10:21:36;;;;;;;9.23;3.33;;;12.00;99.90;;;;;;4963596;28;47319;-78
2022/03/19 10:24:02;;;;;;;5.95;2.38;;;12.00;99.90;;;;;;4962052;28;37992;-76
2022/03/19 10:26:30;;;;;;;12.35;3.97;;;12.00;99.90;;;;;;4963438;28;35308;-76
2022/03/19 10:28:57;;;;;;;9.70;3.45;;;12.20;99.90;;;;;;4965389;28;39624;-77
2022/03/19 10:31:44;;;;;;;9.73;2.80;;;12.20;99.90;;;;;;4960000;28;37449;-76
2022/03/19 10:34:10;;;;;;;7.40;2.83;;;12.10;99.90;;;;;;4960952;28;38803;-75
2022/03/19 10:36:38;;;;;;;11.07;2.90;;;12.20;99.90;;;;;;4966047;28;36781;-75
2022/03/19 10:39:11;;;;;;;7.75;2.83;;;12.40;99.90;;;;;;4960621;28;38487;-76
2022/03/19 10:41:38;;;;;;;12.88;2.88;;;12.50;99.90;;;;;;4962539;28;37461;-76
2022/03/19 10:44:12;;;;;;;7.97;3.08;;;12.40;99.90;;;;;;4975130;28;38105;-76
2022/03/19 10:46:43;;;;;;;10.95;3.08;;;12.40;99.90;;;;;;4963189;28;37165;-77
2022/03/19 10:49:13;;;;;;;10.82;3.35;;;12.50;99.90;;;;;;4980927;28;37736;-76
2022/03/19 10:51:42;;;;;;;9.32;2.95;;;12.50;99.90;;;;;;4962120;28;37347;-75
2022/03/19 10:54:09;;;;;;;8.88;2.60;;;12.70;99.90;;;;;;4981582;28;37003;-76
2022/03/19 10:56:35;;;;;;;9.82;2.90;;;12.70;99.90;;;;;;4981084;28;38177;-75
2022/03/19 10:59:01;;;;;;;13.57;2.92;;;12.80;99.90;;;;;;4986080;28;39009;-75
2022/03/19 11:01:29;;;;;;;12.40;2.80;;;13.10;99.90;;;;;;4982809;28;37821;-76
2022/03/19 11:03:55;;;;;;;12.00;3.17;;;13.20;99.90;;;;;;4982174;28;37039;-78
2022/03/19 11:06:23;;;;;;;8.88;2.90;;;13.30;99.90;;;;;;4973101;28;37044;-78
2022/03/19 11:08:51;;;;;;;5.25;2.70;;;13.10;99.90;;;;;;4983224;28;39577;-76
2022/03/19 11:11:27;;;;;;;10.45;2.90;;;12.90;99.90;;;;;;4980721;28;38705;-75
2022/03/19 11:13:57;;;;;;;8.02;3.10;;;13.00;99.90;;;;;;4979070;28;37631;-76
2022/03/19 11:16:26;;;;;;;7.15;2.22;;;13.00;99.90;;;;;;4966032;28;37260;-76
2022/03/19 11:18:54;;;;;;;8.25;2.80;;;13.10;99.90;;;;;;4969762;28;39255;-76
2022/03/19 11:21:22;;;;;;;6.85;2.50;;;13.10;99.90;;;;;;4977302;28;39302;-76
2022/03/19 11:23:57;;;;;;;9.38;2.67;;;13.10;99.90;;;;;;4967254;28;38887;-75
2022/03/19 11:26:29;;;;;;;11.40;2.92;;;13.00;99.90;;;;;;4965290;28;37024;-76
2022/03/19 11:28:56;;;;;;;9.43;2.63;;;13.20;99.90;;;;;;4985657;28;39836;-73
2022/03/19 11:31:31;;;;;;;9.30;2.35;;;13.20;99.90;;;;;;4981700;28;36493;-76
2022/03/19 11:34:15;;;;;;;6.07;2.55;;;13.30;99.90;;;;;;4956209;28;37535;-74
2022/03/19 11:37:03;;;;;;;7.38;2.53;;;13.50;99.90;;;;;;4986104;28;49028;-75
2022/03/19 11:39:29;;;;;;;8.35;2.80;;;13.70;99.90;;;;;;4958123;28;47205;-75
2022/03/19 11:41:55;;;;;;;7.03;2.00;;;13.90;99.90;;;;;;4979560;28;37519;-76
2022/03/19 11:44:27;;;;;;;5.18;2.15;;;13.90;99.90;;;;;;4964789;28;38086;-78
2022/03/19 11:46:57;;;;;;;9.77;2.80;;;13.80;99.90;;;;;;4986611;28;36337;-76
2022/03/19 11:49:55;;;;;;;8.15;2.47;;;13.80;99.90;;;;;;4983745;28;40439;-75
2022/03/19 11:52:26;;;;;;;5.13;2.13;;;13.80;99.90;;;;;;4983655;28;39064;-77
2022/03/19 11:55:05;;;;;;;5.32;2.42;;;14.20;99.90;;;;;;4989018;28;38232;-77
2022/03/19 11:57:46;;;;;;;5.38;2.50;;;14.30;99.90;;;;;;4948605;28;47653;-77
2022/03/19 12:00:21;;;;;;;7.80;2.00;;;14.00;99.90;;;;;;4987851;28;38470;-78
2022/03/19 12:03:10;;;;;;;4.75;2.17;;;14.10;99.90;;;;;;4988900;28;38443;-77
2022/03/19 12:05:42;;;;;;;6.88;2.00;;;14.20;99.90;;;;;;4990321;28;48743;-79
2022/03/19 12:08:16;;;;;;;5.25;2.00;;;14.40;99.90;;;;;;4988709;28;37198;-76
2022/03/19 12:10:54;;;;;;;5.85;2.28;;;14.30;99.40;;;;;;4980593;28;37467;-79
2022/03/19 12:13:47;;;;;;;5.50;2.10;;;14.30;99.30;;;;;;4978499;28;38356;-76
2022/03/19 12:16:51;;;;;;;5.35;1.90;;;14.30;97.90;;;;;;4989498;28;38400;-77
2022/03/19 12:20:03;;;;;;;8.05;2.55;;;14.40;99.20;;;;;;4981527;28;36278;-76
2022/03/19 12:22:39;;;;;;;7.80;1.92;;;14.40;98.30;;;;;;4974834;28;48412;-78
2022/03/19 12:25:11;;;;;;;4.07;1.83;;;14.60;96.20;;;;;;4983237;28;39872;-76
2022/03/19 12:27:38;;;;;;;6.32;2.00;;;14.40;96.00;;;;;;4987411;28;38153;-75
2022/03/19 12:30:06;;;;;;;8.93;1.80;;;14.70;96.10;;;;;;4976388;28;36422;-77
2022/03/19 12:32:56;;;;;;;6.57;1.80;;;15.00;95.10;;;;;;4982195;28;38263;-78
2022/03/19 12:35:43;;;;;;;4.00;1.70;;;15.10;95.80;;;;;;4963044;28;37325;-78
2022/03/19 12:38:09;;;;;;;4.85;1.45;;;15.10;93.50;;;;;;4980696;28;38860;-77
2022/03/19 12:43:34;;;;;;;3.85;1.40;;;15.00;91.50;;;;;;4984368;28;39648;-77
2022/03/19 12:46:00;;;;;;;5.25;1.95;;;15.10;92.00;;;;;;4987244;28;39345;-77
2022/03/19 12:48:31;;;;;;;5.00;1.60;;;15.20;91.60;;;;;;4976964;28;39975;-77
2022/03/19 12:50:57;;;;;;;4.43;1.60;;;15.00;90.00;;;;;;4988391;28;36960;-77
2022/03/19 12:53:41;;;;;;;5.28;1.45;;;15.00;91.80;;;;;;4982758;28;39840;-77
2022/03/19 12:56:17;;;;;;;4.85;1.90;;;15.40;91.40;;;;;;4923873;28;1189017;-79
2022/03/19 12:58:47;;;;;;;3.30;1.48;;;15.40;89.30;;;;;;4967799;28;37468;-76
2022/03/19 13:01:16;;;;;;;2.80;1.48;;;15.20;87.30;;;;;;4966970;28;38094;-78
2022/03/19 13:03:45;;;;;;;4.97;1.30;;;15.20;83.40;;;;;;4969248;28;38674;-78
2022/03/19 13:06:12;;;;;;;3.95;1.52;;;15.20;84.10;;;;;;4963998;28;38424;-79
2022/03/19 13:08:45;;;;;;;5.68;1.77;;;15.70;83.80;;;;;;4980665;28;38688;-79
2022/03/19 13:11:14;;;;;;;5.97;1.40;;;15.30;81.50;;;;;;4976403;28;39350;-77